sensor_id;sensor_type;location;lat;lon;timestamp;pressure;altitude;pressure_sealevel;temperature
40199;BMP280;25906;43.536;26.068;2023-08-24T00:00:14;98826.63;;;26.19
40199;BMP280;25906;43.536;26.068;2023-08-24T00:02:59;98832.06;;;26.27
40199;BMP280;25906;43.536;26.068;2023-08-24T00:05:45;98829.19;;;26.25
40199;BMP280;25906;43.536;26.068;2023-08-24T00:08:32;98830.56;;;26.18
40199;BMP280;25906;43.536;26.068;2023-08-24T00:11:17;98831.72;;;26.23
40199;BMP280;25906;43.536;26.068;2023-08-24T00:14:03;98829.53;;;26.21
40199;BMP280;25906;43.536;26.068;2023-08-24T00:16:48;98822.50;;;26.26
40199;BMP280;25906;43.536;26.068;2023-08-24T00:19:34;98829.13;;;26.17
40199;BMP280;25906;43.536;26.068;2023-08-24T00:22:20;98829.13;;;26.17
40199;BMP280;25906;43.536;26.068;2023-08-24T00:25:07;98832.91;;;26.14
40199;BMP280;25906;43.536;26.068;2023-08-24T00:27:53;98835.84;;;26.16
40199;BMP280;25906;43.536;26.068;2023-08-24T00:30:38;98838.81;;;26.05
40199;BMP280;25906;43.536;26.068;2023-08-24T00:33:24;98851.16;;;26.14
40199;BMP280;25906;43.536;26.068;2023-08-24T00:36:10;98841.03;;;26.14
40199;BMP280;25906;43.536;26.068;2023-08-24T00:38:55;98850.63;;;25.95
40199;BMP280;25906;43.536;26.068;2023-08-24T00:41:41;98854.75;;;26.09
40199;BMP280;25906;43.536;26.068;2023-08-24T00:44:26;98853.63;;;26.04
40199;BMP280;25906;43.536;26.068;2023-08-24T00:47:12;98860.19;;;26.09
40199;BMP280;25906;43.536;26.068;2023-08-24T00:49:59;98870.19;;;25.93
40199;BMP280;25906;43.536;26.068;2023-08-24T00:52:46;98863.91;;;25.64
40199;BMP280;25906;43.536;26.068;2023-08-24T00:55:32;98864.44;;;25.63
40199;BMP280;25906;43.536;26.068;2023-08-24T00:58:18;98859.22;;;25.18
40199;BMP280;25906;43.536;26.068;2023-08-24T01:01:05;98862.03;;;25.26
40199;BMP280;25906;43.536;26.068;2023-08-24T01:03:50;98857.06;;;25.17
40199;BMP280;25906;43.536;26.068;2023-08-24T01:06:36;98857.47;;;24.94
40199;BMP280;25906;43.536;26.068;2023-08-24T01:09:22;98855.19;;;24.85
40199;BMP280;25906;43.536;26.068;2023-08-24T01:15:23;98843.31;;;24.75
40199;BMP280;25906;43.536;26.068;2023-08-24T01:18:13;98839.28;;;24.82
40199;BMP280;25906;43.536;26.068;2023-08-24T01:21:00;98838.13;;;24.90
40199;BMP280;25906;43.536;26.068;2023-08-24T01:24:17;98835.50;;;24.98
40199;BMP280;25906;43.536;26.068;2023-08-24T01:27:04;98834.44;;;25.14
40199;BMP280;25906;43.536;26.068;2023-08-24T01:29:50;98830.69;;;25.17
40199;BMP280;25906;43.536;26.068;2023-08-24T01:32:37;98825.78;;;25.15
40199;BMP280;25906;43.536;26.068;2023-08-24T01:35:23;98829.88;;;25.09
40199;BMP280;25906;43.536;26.068;2023-08-24T01:38:09;98835.41;;;25.03
40199;BMP280;25906;43.536;26.068;2023-08-24T01:41:22;98835.78;;;25.21
40199;BMP280;25906;43.536;26.068;2023-08-24T01:44:12;98828.69;;;25.31
40199;BMP280;25906;43.536;26.068;2023-08-24T01:47:01;98827.84;;;25.36
40199;BMP280;25906;43.536;26.068;2023-08-24T01:49:49;98813.13;;;25.31
40199;BMP280;25906;43.536;26.068;2023-08-24T01:52:34;98818.53;;;25.44
40199;BMP280;25906;43.536;26.068;2023-08-24T01:55:20;98816.75;;;25.47
40199;BMP280;25906;43.536;26.068;2023-08-24T01:58:06;98812.75;;;25.48
40199;BMP280;25906;43.536;26.068;2023-08-24T02:00:51;98815.94;;;25.39
40199;BMP280;25906;43.536;26.068;2023-08-24T02:03:37;98808.44;;;25.32
40199;BMP280;25906;43.536;26.068;2023-08-24T02:06:24;98811.50;;;25.28
40199;BMP280;25906;43.536;26.068;2023-08-24T02:09:09;98810.16;;;25.22
40199;BMP280;25906;43.536;26.068;2023-08-24T02:11:55;98802.56;;;25.20
40199;BMP280;25906;43.536;26.068;2023-08-24T02:14:40;98802.69;;;25.01
40199;BMP280;25906;43.536;26.068;2023-08-24T02:17:28;98807.69;;;24.97
40199;BMP280;25906;43.536;26.068;2023-08-24T02:20:14;98808.00;;;24.94
40199;BMP280;25906;43.536;26.068;2023-08-24T02:23:00;98805.28;;;24.94
40199;BMP280;25906;43.536;26.068;2023-08-24T02:25:45;98803.00;;;24.98
40199;BMP280;25906;43.536;26.068;2023-08-24T02:28:33;98809.88;;;24.99
40199;BMP280;25906;43.536;26.068;2023-08-24T02:31:19;98806.25;;;24.96
40199;BMP280;25906;43.536;26.068;2023-08-24T02:34:04;98813.53;;;24.88
40199;BMP280;25906;43.536;26.068;2023-08-24T02:36:50;98811.13;;;24.85
40199;BMP280;25906;43.536;26.068;2023-08-24T02:39:35;98810.97;;;24.83
40199;BMP280;25906;43.536;26.068;2023-08-24T02:42:20;98808.25;;;24.83
40199;BMP280;25906;43.536;26.068;2023-08-24T02:45:06;98807.09;;;24.78
40199;BMP280;25906;43.536;26.068;2023-08-24T02:47:52;98808.56;;;24.79
40199;BMP280;25906;43.536;26.068;2023-08-24T02:50:37;98817.50;;;24.74
40199;BMP280;25906;43.536;26.068;2023-08-24T02:53:23;98813.53;;;24.75
40199;BMP280;25906;43.536;26.068;2023-08-24T02:56:08;98814.81;;;24.74
40199;BMP280;25906;43.536;26.068;2023-08-24T02:58:53;98807.91;;;24.73
40199;BMP280;25906;43.536;26.068;2023-08-24T03:01:39;98811.88;;;24.72
40199;BMP280;25906;43.536;26.068;2023-08-24T03:04:26;98800.81;;;24.70
40199;BMP280;25906;43.536;26.068;2023-08-24T03:07:12;98806.69;;;24.74
40199;BMP280;25906;43.536;26.068;2023-08-24T03:09:57;98801.06;;;24.72
40199;BMP280;25906;43.536;26.068;2023-08-24T03:12:42;98813.13;;;24.71
40199;BMP280;25906;43.536;26.068;2023-08-24T03:15:28;98817.06;;;24.70
40199;BMP280;25906;43.536;26.068;2023-08-24T03:18:14;98823.50;;;24.67
40199;BMP280;25906;43.536;26.068;2023-08-24T03:21:00;98821.00;;;24.69
40199;BMP280;25906;43.536;26.068;2023-08-24T03:23:46;98832.50;;;24.62
40199;BMP280;25906;43.536;26.068;2023-08-24T03:26:32;98838.63;;;24.50
40199;BMP280;25906;43.536;26.068;2023-08-24T03:29:17;98834.34;;;24.41
40199;BMP280;25906;43.536;26.068;2023-08-24T03:32:02;98843.69;;;24.40
40199;BMP280;25906;43.536;26.068;2023-08-24T03:34:48;98835.97;;;24.31
40199;BMP280;25906;43.536;26.068;2023-08-24T03:37:33;98837.00;;;24.28
40199;BMP280;25906;43.536;26.068;2023-08-24T03:40:19;98839.28;;;24.24
40199;BMP280;25906;43.536;26.068;2023-08-24T03:43:05;98837.44;;;24.32
40199;BMP280;25906;43.536;26.068;2023-08-24T03:45:51;98841.00;;;24.27
40199;BMP280;25906;43.536;26.068;2023-08-24T03:48:36;98839.69;;;24.28
40199;BMP280;25906;43.536;26.068;2023-08-24T03:51:21;98844.59;;;24.29
40199;BMP280;25906;43.536;26.068;2023-08-24T03:54:07;98840.38;;;24.34
40199;BMP280;25906;43.536;26.068;2023-08-24T03:56:52;98841.50;;;24.38
40199;BMP280;25906;43.536;26.068;2023-08-24T03:59:38;98844.53;;;24.35
40199;BMP280;25906;43.536;26.068;2023-08-24T04:02:23;98849.00;;;24.32
40199;BMP280;25906;43.536;26.068;2023-08-24T04:05:09;98841.00;;;24.27
40199;BMP280;25906;43.536;26.068;2023-08-24T04:07:54;98849.84;;;24.40
40199;BMP280;25906;43.536;26.068;2023-08-24T04:10:40;98845.78;;;24.60
40199;BMP280;25906;43.536;26.068;2023-08-24T04:13:25;98855.59;;;24.63
40199;BMP280;25906;43.536;26.068;2023-08-24T04:16:11;98857.69;;;24.57
40199;BMP280;25906;43.536;26.068;2023-08-24T04:18:56;98856.31;;;24.64
40199;BMP280;25906;43.536;26.068;2023-08-24T04:21:42;98852.25;;;24.83
40199;BMP280;25906;43.536;26.068;2023-08-24T04:24:27;98853.72;;;24.84
40199;BMP280;25906;43.536;26.068;2023-08-24T04:27:14;98848.25;;;24.90
40199;BMP280;25906;43.536;26.068;2023-08-24T04:29:59;98857.38;;;24.87
40199;BMP280;25906;43.536;26.068;2023-08-24T04:32:46;98858.84;;;24.88
40199;BMP280;25906;43.536;26.068;2023-08-24T04:35:34;98851.44;;;25.01
40199;BMP280;25906;43.536;26.068;2023-08-24T04:38:21;98847.91;;;25.06
40199;BMP280;25906;43.536;26.068;2023-08-24T04:41:08;98855.06;;;25.17
40199;BMP280;25906;43.536;26.068;2023-08-24T04:43:54;98864.44;;;25.16
40199;BMP280;25906;43.536;26.068;2023-08-24T04:46:40;98856.22;;;25.22
40199;BMP280;25906;43.536;26.068;2023-08-24T04:49:25;98862.13;;;25.07
40199;BMP280;25906;43.536;26.068;2023-08-24T04:52:11;98864.09;;;25.33
40199;BMP280;25906;43.536;26.068;2023-08-24T04:54:56;98872.03;;;25.31
40199;BMP280;25906;43.536;26.068;2023-08-24T04:57:42;98873.56;;;25.39
40199;BMP280;25906;43.536;26.068;2023-08-24T05:00:27;98875.66;;;25.46
40199;BMP280;25906;43.536;26.068;2023-08-24T05:03:13;98877.81;;;25.48
40199;BMP280;25906;43.536;26.068;2023-08-24T05:05:58;98881.34;;;25.56
40199;BMP280;25906;43.536;26.068;2023-08-24T05:08:44;98879.16;;;25.67
40199;BMP280;25906;43.536;26.068;2023-08-24T05:11:30;98882.97;;;25.72
40199;BMP280;25906;43.536;26.068;2023-08-24T05:14:15;98877.44;;;25.77
40199;BMP280;25906;43.536;26.068;2023-08-24T05:17:01;98891.88;;;25.93
40199;BMP280;25906;43.536;26.068;2023-08-24T05:19:46;98891.53;;;25.97
40199;BMP280;25906;43.536;26.068;2023-08-24T05:22:32;98888.88;;;26.04
40199;BMP280;25906;43.536;26.068;2023-08-24T05:25:17;98890.53;;;26.07
40199;BMP280;25906;43.536;26.068;2023-08-24T05:28:03;98889.16;;;26.14
40199;BMP280;25906;43.536;26.068;2023-08-24T05:30:49;98903.72;;;26.24
40199;BMP280;25906;43.536;26.068;2023-08-24T05:33:34;98904.59;;;26.39
40199;BMP280;25906;43.536;26.068;2023-08-24T05:36:20;98898.00;;;26.56
40199;BMP280;25906;43.536;26.068;2023-08-24T05:39:05;98894.97;;;26.67
40199;BMP280;25906;43.536;26.068;2023-08-24T05:41:51;98900.28;;;26.72
40199;BMP280;25906;43.536;26.068;2023-08-24T05:44:38;98893.97;;;26.77
40199;BMP280;25906;43.536;26.068;2023-08-24T05:47:23;98897.91;;;26.97
40199;BMP280;25906;43.536;26.068;2023-08-24T05:50:09;98899.78;;;27.17
40199;BMP280;25906;43.536;26.068;2023-08-24T05:52:56;98902.03;;;27.34
40199;BMP280;25906;43.536;26.068;2023-08-24T05:55:42;98897.19;;;27.47
40199;BMP280;25906;43.536;26.068;2023-08-24T05:58:27;98897.94;;;27.55
40199;BMP280;25906;43.536;26.068;2023-08-24T06:01:13;98897.22;;;27.62
40199;BMP280;25906;43.536;26.068;2023-08-24T06:03:58;98893.63;;;27.67
40199;BMP280;25906;43.536;26.068;2023-08-24T06:06:44;98895.84;;;27.84
40199;BMP280;25906;43.536;26.068;2023-08-24T06:09:30;98904.53;;;27.97
40199;BMP280;25906;43.536;26.068;2023-08-24T06:12:17;98901.63;;;28.03
40199;BMP280;25906;43.536;26.068;2023-08-24T06:15:02;98898.72;;;28.16
40199;BMP280;25906;43.536;26.068;2023-08-24T06:17:50;98906.16;;;27.93
40199;BMP280;25906;43.536;26.068;2023-08-24T06:20:36;98902.16;;;28.24
40199;BMP280;25906;43.536;26.068;2023-08-24T06:23:21;98906.16;;;28.46
40199;BMP280;25906;43.536;26.068;2023-08-24T06:26:06;98920.47;;;28.54
40199;BMP280;25906;43.536;26.068;2023-08-24T06:28:52;98911.91;;;28.72
40199;BMP280;25906;43.536;26.068;2023-08-24T06:31:37;98912.09;;;28.74
40199;BMP280;25906;43.536;26.068;2023-08-24T06:34:23;98912.28;;;28.76
40199;BMP280;25906;43.536;26.068;2023-08-24T06:37:08;98912.06;;;28.82
40199;BMP280;25906;43.536;26.068;2023-08-24T06:39:54;98907.63;;;29.09
40199;BMP280;25906;43.536;26.068;2023-08-24T06:42:39;98909.78;;;29.18
40199;BMP280;25906;43.536;26.068;2023-08-24T06:45:25;98911.56;;;29.23
40199;BMP280;25906;43.536;26.068;2023-08-24T06:48:10;98913.94;;;29.51
40199;BMP280;25906;43.536;26.068;2023-08-24T06:50:55;98906.53;;;29.69
40199;BMP280;25906;43.536;26.068;2023-08-24T06:53:41;98912.50;;;29.75
40199;BMP280;25906;43.536;26.068;2023-08-24T06:56:27;98909.56;;;29.81
40199;BMP280;25906;43.536;26.068;2023-08-24T06:59:13;98910.97;;;29.89
40199;BMP280;25906;43.536;26.068;2023-08-24T07:01:58;98917.91;;;29.83
40199;BMP280;25906;43.536;26.068;2023-08-24T07:04:44;98922.44;;;29.88
40199;BMP280;25906;43.536;26.068;2023-08-24T07:07:30;98925.59;;;30.01
40199;BMP280;25906;43.536;26.068;2023-08-24T07:10:16;98920.44;;;30.13
40199;BMP280;25906;43.536;26.068;2023-08-24T07:13:04;98927.28;;;30.21
40199;BMP280;25906;43.536;26.068;2023-08-24T07:15:50;98924.47;;;30.46
40199;BMP280;25906;43.536;26.068;2023-08-24T07:18:36;98919.63;;;30.54
40199;BMP280;25906;43.536;26.068;2023-08-24T07:21:21;98925.75;;;30.79
40199;BMP280;25906;43.536;26.068;2023-08-24T07:24:07;98919.69;;;30.98
40199;BMP280;25906;43.536;26.068;2023-08-24T07:26:52;98922.63;;;31.09
40199;BMP280;25906;43.536;26.068;2023-08-24T07:29:38;98919.03;;;31.34
40199;BMP280;25906;43.536;26.068;2023-08-24T07:32:23;98917.91;;;31.37
40199;BMP280;25906;43.536;26.068;2023-08-24T07:35:09;98915.59;;;31.69
40199;BMP280;25906;43.536;26.068;2023-08-24T07:41:01;98912.59;;;31.75
40199;BMP280;25906;43.536;26.068;2023-08-24T07:43:48;98908.44;;;31.83
40199;BMP280;25906;43.536;26.068;2023-08-24T07:46:33;98910.06;;;31.86
40199;BMP280;25906;43.536;26.068;2023-08-24T07:49:19;98912.53;;;32.11
40199;BMP280;25906;43.536;26.068;2023-08-24T07:52:04;98910.53;;;32.21
40199;BMP280;25906;43.536;26.068;2023-08-24T07:54:49;98907.66;;;32.67
40199;BMP280;25906;43.536;26.068;2023-08-24T07:57:36;98914.44;;;32.37
40199;BMP280;25906;43.536;26.068;2023-08-24T08:00:21;98912.25;;;32.74
40199;BMP280;25906;43.536;26.068;2023-08-24T08:03:07;98912.41;;;32.66
40199;BMP280;25906;43.536;26.068;2023-08-24T08:05:52;98909.78;;;32.78
40199;BMP280;25906;43.536;26.068;2023-08-24T08:08:38;98903.88;;;32.91
40199;BMP280;25906;43.536;26.068;2023-08-24T08:11:23;98900.19;;;33.08
40199;BMP280;25906;43.536;26.068;2023-08-24T08:14:09;98902.00;;;33.24
40199;BMP280;25906;43.536;26.068;2023-08-24T08:16:54;98902.47;;;33.51
40199;BMP280;25906;43.536;26.068;2023-08-24T08:19:40;98899.72;;;33.61
40199;BMP280;25906;43.536;26.068;2023-08-24T08:22:26;98893.38;;;33.49
40199;BMP280;25906;43.536;26.068;2023-08-24T08:25:11;98895.00;;;33.42
40199;BMP280;25906;43.536;26.068;2023-08-24T08:27:57;98890.03;;;33.60
40199;BMP280;25906;43.536;26.068;2023-08-24T08:30:44;98884.00;;;33.73
40199;BMP280;25906;43.536;26.068;2023-08-24T08:33:29;98880.41;;;34.13
40199;BMP280;25906;43.536;26.068;2023-08-24T08:36:15;98877.19;;;33.95
40199;BMP280;25906;43.536;26.068;2023-08-24T08:39:00;98881.00;;;33.90
40199;BMP280;25906;43.536;26.068;2023-08-24T08:41:46;98880.91;;;34.21
40199;BMP280;25906;43.536;26.068;2023-08-24T08:44:32;98864.78;;;34.15
40199;BMP280;25906;43.536;26.068;2023-08-24T08:47:18;98868.25;;;34.16
40199;BMP280;25906;43.536;26.068;2023-08-24T08:50:04;98867.44;;;34.36
40199;BMP280;25906;43.536;26.068;2023-08-24T08:52:50;98870.28;;;34.48
40199;BMP280;25906;43.536;26.068;2023-08-24T08:55:36;98864.66;;;34.46
40199;BMP280;25906;43.536;26.068;2023-08-24T08:58:22;98868.34;;;34.50
40199;BMP280;25906;43.536;26.068;2023-08-24T09:01:07;98868.69;;;34.45
40199;BMP280;25906;43.536;26.068;2023-08-24T09:03:53;98870.91;;;34.69
40199;BMP280;25906;43.536;26.068;2023-08-24T09:06:39;98863.97;;;34.24
40199;BMP280;25906;43.536;26.068;2023-08-24T09:09:26;98859.44;;;34.73
40199;BMP280;25906;43.536;26.068;2023-08-24T09:12:12;98852.88;;;34.90
40199;BMP280;25906;43.536;26.068;2023-08-24T09:14:57;98848.28;;;34.59
40199;BMP280;25906;43.536;26.068;2023-08-24T09:17:43;98850.72;;;34.88
40199;BMP280;25906;43.536;26.068;2023-08-24T09:20:29;98854.41;;;35.16
40199;BMP280;25906;43.536;26.068;2023-08-24T09:23:18;98852.28;;;35.03
40199;BMP280;25906;43.536;26.068;2023-08-24T09:26:06;98851.03;;;34.59
40199;BMP280;25906;43.536;26.068;2023-08-24T09:28:52;98846.88;;;34.70
40199;BMP280;25906;43.536;26.068;2023-08-24T09:31:38;98840.19;;;34.73
40199;BMP280;25906;43.536;26.068;2023-08-24T09:34:24;98846.03;;;34.67
40199;BMP280;25906;43.536;26.068;2023-08-24T09:37:15;98840.25;;;34.08
40199;BMP280;25906;43.536;26.068;2023-08-24T09:40:05;98831.31;;;34.98
40199;BMP280;25906;43.536;26.068;2023-08-24T09:42:52;98833.06;;;35.51
40199;BMP280;25906;43.536;26.068;2023-08-24T09:45:38;98828.88;;;35.50
40199;BMP280;25906;43.536;26.068;2023-08-24T09:48:24;98820.94;;;35.56
40199;BMP280;25906;43.536;26.068;2023-08-24T09:51:11;98825.16;;;35.57
40199;BMP280;25906;43.536;26.068;2023-08-24T09:53:58;98821.69;;;35.56
40199;BMP280;25906;43.536;26.068;2023-08-24T09:56:48;98818.25;;;35.44
40199;BMP280;25906;43.536;26.068;2023-08-24T09:59:34;98820.44;;;35.23
40199;BMP280;25906;43.536;26.068;2023-08-24T10:02:20;98820.94;;;35.19
40199;BMP280;25906;43.536;26.068;2023-08-24T10:05:08;98815.31;;;35.29
40199;BMP280;25906;43.536;26.068;2023-08-24T10:07:58;98805.50;;;35.03
40199;BMP280;25906;43.536;26.068;2023-08-24T10:10:46;98807.84;;;35.43
40199;BMP280;25906;43.536;26.068;2023-08-24T10:13:43;98802.88;;;35.05
40199;BMP280;25906;43.536;26.068;2023-08-24T10:16:32;98805.63;;;35.05
40199;BMP280;25906;43.536;26.068;2023-08-24T10:19:20;98802.63;;;34.77
40199;BMP280;25906;43.536;26.068;2023-08-24T10:22:07;98797.81;;;34.66
40199;BMP280;25906;43.536;26.068;2023-08-24T10:24:53;98800.94;;;34.49
40199;BMP280;25906;43.536;26.068;2023-08-24T10:27:40;98793.19;;;34.57
40199;BMP280;25906;43.536;26.068;2023-08-24T10:30:29;98794.97;;;34.64
40199;BMP280;25906;43.536;26.068;2023-08-24T10:33:16;98785.91;;;34.97
40199;BMP280;25906;43.536;26.068;2023-08-24T10:36:05;98784.63;;;35.23
40199;BMP280;25906;43.536;26.068;2023-08-24T10:38:55;98776.59;;;35.38
40199;BMP280;25906;43.536;26.068;2023-08-24T10:41:48;98775.91;;;35.26
40199;BMP280;25906;43.536;26.068;2023-08-24T10:44:35;98773.75;;;35.25
40199;BMP280;25906;43.536;26.068;2023-08-24T10:47:22;98762.09;;;35.38
40199;BMP280;25906;43.536;26.068;2023-08-24T10:50:09;98752.44;;;35.62
40199;BMP280;25906;43.536;26.068;2023-08-24T10:52:55;98750.78;;;35.82
40199;BMP280;25906;43.536;26.068;2023-08-24T10:55:40;98748.59;;;35.92
40199;BMP280;25906;43.536;26.068;2023-08-24T10:58:26;98748.03;;;35.82
40199;BMP280;25906;43.536;26.068;2023-08-24T11:01:20;98748.59;;;35.92
40199;BMP280;25906;43.536;26.068;2023-08-24T11:04:10;98738.25;;;35.06
40199;BMP280;25906;43.536;26.068;2023-08-24T11:06:59;98734.34;;;34.97
40199;BMP280;25906;43.536;26.068;2023-08-24T11:09:47;98728.38;;;34.77
40199;BMP280;25906;43.536;26.068;2023-08-24T11:15:48;98712.16;;;35.07
40199;BMP280;25906;43.536;26.068;2023-08-24T11:18:42;98708.53;;;34.67
40199;BMP280;25906;43.536;26.068;2023-08-24T11:21:27;98703.16;;;34.69
40199;BMP280;25906;43.536;26.068;2023-08-24T11:24:13;98696.53;;;35.34
40199;BMP280;25906;43.536;26.068;2023-08-24T11:27:00;98696.47;;;35.71
40199;BMP280;25906;43.536;26.068;2023-08-24T11:29:58;98689.88;;;35.76
40199;BMP280;25906;43.536;26.068;2023-08-24T11:32:43;98688.22;;;36.10
40199;BMP280;25906;43.536;26.068;2023-08-24T11:35:29;98683.38;;;35.83
40199;BMP280;25906;43.536;26.068;2023-08-24T11:38:20;98677.47;;;36.02
40199;BMP280;25906;43.536;26.068;2023-08-24T11:41:16;98670.41;;;35.85
40199;BMP280;25906;43.536;26.068;2023-08-24T11:44:01;98668.59;;;36.04
40199;BMP280;25906;43.536;26.068;2023-08-24T11:46:47;98671.69;;;36.10
40199;BMP280;25906;43.536;26.068;2023-08-24T11:49:32;98655.16;;;35.71
40199;BMP280;25906;43.536;26.068;2023-08-24T11:52:18;98657.09;;;36.07
40199;BMP280;25906;43.536;26.068;2023-08-24T11:55:04;98653.72;;;36.22
40199;BMP280;25906;43.536;26.068;2023-08-24T11:57:52;98652.38;;;36.37
40199;BMP280;25906;43.536;26.068;2023-08-24T12:00:38;98644.97;;;35.60
40199;BMP280;25906;43.536;26.068;2023-08-24T12:03:24;98645.97;;;36.05
40199;BMP280;25906;43.536;26.068;2023-08-24T12:06:11;98646.06;;;36.07
40199;BMP280;25906;43.536;26.068;2023-08-24T12:08:57;98643.84;;;35.78
40199;BMP280;25906;43.536;26.068;2023-08-24T12:11:42;98639.91;;;36.09
40199;BMP280;25906;43.536;26.068;2023-08-24T12:14:28;98635.34;;;36.00
40199;BMP280;25906;43.536;26.068;2023-08-24T12:17:16;98645.53;;;36.24
40199;BMP280;25906;43.536;26.068;2023-08-24T12:20:01;98653.38;;;35.89
40199;BMP280;25906;43.536;26.068;2023-08-24T12:22:53;98653.91;;;35.99
40199;BMP280;25906;43.536;26.068;2023-08-24T12:25:42;98659.28;;;35.83
40199;BMP280;25906;43.536;26.068;2023-08-24T12:28:29;98644.88;;;35.85
40199;BMP280;25906;43.536;26.068;2023-08-24T12:31:14;98643.78;;;35.76
40199;BMP280;25906;43.536;26.068;2023-08-24T12:34:04;98660.69;;;35.84
40199;BMP280;25906;43.536;26.068;2023-08-24T12:36:49;98654.84;;;35.65
40199;BMP280;25906;43.536;26.068;2023-08-24T12:39:36;98652.31;;;35.69
40199;BMP280;25906;43.536;26.068;2023-08-24T12:42:21;98648.00;;;35.66
40199;BMP280;25906;43.536;26.068;2023-08-24T12:45:07;98650.56;;;36.14
40199;BMP280;25906;43.536;26.068;2023-08-24T12:47:53;98641.56;;;36.00
40199;BMP280;25906;43.536;26.068;2023-08-24T12:54:04;98646.97;;;36.39
40199;BMP280;25906;43.536;26.068;2023-08-24T12:56:50;98649.31;;;36.04
40199;BMP280;25906;43.536;26.068;2023-08-24T12:59:35;98652.38;;;35.57
40199;BMP280;25906;43.536;26.068;2023-08-24T13:02:20;98648.69;;;35.92
40199;BMP280;25906;43.536;26.068;2023-08-24T13:05:06;98642.47;;;36.05
40199;BMP280;25906;43.536;26.068;2023-08-24T13:07:52;98649.63;;;36.10
40199;BMP280;25906;43.536;26.068;2023-08-24T13:10:38;98648.88;;;35.82
40199;BMP280;25906;43.536;26.068;2023-08-24T13:13:23;98650.59;;;35.89
40199;BMP280;25906;43.536;26.068;2023-08-24T13:16:09;98654.19;;;35.92
40199;BMP280;25906;43.536;26.068;2023-08-24T13:18:54;98659.81;;;35.55
40199;BMP280;25906;43.536;26.068;2023-08-24T13:21:40;98655.56;;;35.65
40199;BMP280;25906;43.536;26.068;2023-08-24T13:24:25;98655.09;;;35.96
40199;BMP280;25906;43.536;26.068;2023-08-24T13:27:11;98675.78;;;35.08
40199;BMP280;25906;43.536;26.068;2023-08-24T13:30:00;98687.13;;;35.51
40199;BMP280;25906;43.536;26.068;2023-08-24T13:32:46;98674.13;;;34.43
40199;BMP280;25906;43.536;26.068;2023-08-24T13:35:31;98668.84;;;34.13
40199;BMP280;25906;43.536;26.068;2023-08-24T13:38:17;98679.31;;;33.93
40199;BMP280;25906;43.536;26.068;2023-08-24T13:41:03;98678.78;;;33.73
40199;BMP280;25906;43.536;26.068;2023-08-24T13:43:51;98673.38;;;33.64
40199;BMP280;25906;43.536;26.068;2023-08-24T13:46:37;98667.56;;;33.37
40199;BMP280;25906;43.536;26.068;2023-08-24T13:49:22;98663.09;;;33.53
40199;BMP280;25906;43.536;26.068;2023-08-24T13:52:08;98659.75;;;33.54
40199;BMP280;25906;43.536;26.068;2023-08-24T13:54:54;98667.38;;;33.56
40199;BMP280;25906;43.536;26.068;2023-08-24T13:57:39;98661.50;;;33.17
40199;BMP280;25906;43.536;26.068;2023-08-24T14:00:25;98665.00;;;33.29
40199;BMP280;25906;43.536;26.068;2023-08-24T14:03:10;98666.44;;;33.09
40199;BMP280;25906;43.536;26.068;2023-08-24T14:05:56;98668.34;;;33.07
40199;BMP280;25906;43.536;26.068;2023-08-24T14:08:41;98670.88;;;32.93
40199;BMP280;25906;43.536;26.068;2023-08-24T14:11:27;98672.91;;;32.62
40199;BMP280;25906;43.536;26.068;2023-08-24T14:14:13;98663.13;;;32.59
40199;BMP280;25906;43.536;26.068;2023-08-24T14:16:59;98664.66;;;32.92
40199;BMP280;25906;43.536;26.068;2023-08-24T14:19:45;98671.16;;;32.97
40199;BMP280;25906;43.536;26.068;2023-08-24T14:22:30;98661.03;;;33.21
40199;BMP280;25906;43.536;26.068;2023-08-24T14:25:16;98670.19;;;33.14
40199;BMP280;25906;43.536;26.068;2023-08-24T14:28:04;98665.84;;;32.89
40199;BMP280;25906;43.536;26.068;2023-08-24T14:30:52;98667.59;;;32.85
40199;BMP280;25906;43.536;26.068;2023-08-24T14:33:37;98673.13;;;33.06
40199;BMP280;25906;43.536;26.068;2023-08-24T14:36:23;98673.47;;;32.70
40199;BMP280;25906;43.536;26.068;2023-08-24T14:39:09;98678.25;;;32.29
40199;BMP280;25906;43.536;26.068;2023-08-24T14:41:55;98681.53;;;32.37
40199;BMP280;25906;43.536;26.068;2023-08-24T14:44:40;98690.72;;;31.63
40199;BMP280;25906;43.536;26.068;2023-08-24T14:47:26;98699.16;;;31.19
40199;BMP280;25906;43.536;26.068;2023-08-24T14:50:12;98698.03;;;30.86
40199;BMP280;25906;43.536;26.068;2023-08-24T14:52:57;98695.72;;;30.47
40199;BMP280;25906;43.536;26.068;2023-08-24T14:55:43;98681.28;;;30.10
40199;BMP280;25906;43.536;26.068;2023-08-24T14:58:28;98676.97;;;29.90
40199;BMP280;25906;43.536;26.068;2023-08-24T15:01:14;98666.44;;;29.86
40199;BMP280;25906;43.536;26.068;2023-08-24T15:04:00;98671.09;;;29.76
40199;BMP280;25906;43.536;26.068;2023-08-24T15:06:45;98670.88;;;29.65
40199;BMP280;25906;43.536;26.068;2023-08-24T15:09:31;98672.63;;;29.52
40199;BMP280;25906;43.536;26.068;2023-08-24T15:12:16;98676.31;;;29.47
40199;BMP280;25906;43.536;26.068;2023-08-24T15:15:02;98685.06;;;29.63
40199;BMP280;25906;43.536;26.068;2023-08-24T15:17:48;98703.63;;;29.65
40199;BMP280;25906;43.536;26.068;2023-08-24T15:20:36;98709.22;;;29.49
40199;BMP280;25906;43.536;26.068;2023-08-24T15:23:29;98719.66;;;29.78
40199;BMP280;25906;43.536;26.068;2023-08-24T15:26:15;98718.03;;;29.58
40199;BMP280;25906;43.536;26.068;2023-08-24T15:29:14;98709.53;;;29.53
40199;BMP280;25906;43.536;26.068;2023-08-24T15:32:00;98717.91;;;29.73
40199;BMP280;25906;43.536;26.068;2023-08-24T15:34:46;98730.16;;;29.64
40199;BMP280;25906;43.536;26.068;2023-08-24T15:37:32;98739.09;;;29.40
40199;BMP280;25906;43.536;26.068;2023-08-24T15:40:17;98728.50;;;29.27
40199;BMP280;25906;43.536;26.068;2023-08-24T15:43:04;98721.16;;;28.80
40199;BMP280;25906;43.536;26.068;2023-08-24T15:45:50;98714.00;;;28.60
40199;BMP280;25906;43.536;26.068;2023-08-24T15:48:36;98708.00;;;28.61
40199;BMP280;25906;43.536;26.068;2023-08-24T15:51:23;98713.38;;;28.44
40199;BMP280;25906;43.536;26.068;2023-08-24T15:54:08;98716.94;;;28.15
40199;BMP280;25906;43.536;26.068;2023-08-24T15:56:54;98706.00;;;28.30